KIWD Weather

FAA AWOS (Automated Weather Observing System)

Weather observations for the last 3 days click here.

KIWD

METAR
KIWD 111856Z AUTO 28011KT 9SM -SN OVC008 M04/M06 A2974 RMK AO2 SLP094 T10441056 FZRANO PNO $
KIWD 111756Z AUTO 27008KT 9SM -SN OVC012 M04/M06 A2974 RMK AO2 SLP093 6//// T10441061 11044 21083 51002 FZRANO PNO $
TAF
KIWD 111741Z 1118/1218 25005KT 5SM -SHSN OVC015 FM112000 32013G24KT P6SM -SHSN OVC015 FM112200 34017G29KT 6SM -SHSN BLSN OVC020 FM120800 33014G23KT 1 1/2SM -SHSN BLSN BKN020 FM121300 33012G20KT 3SM BLSN BKN015